sensor_id;sensor_type;location;lat;lon;timestamp;P1;durP1;ratioP1;P2;durP2;ratioP2
77466;SDS011;66564;42.482;25.548;2023-05-10T00:01:29;9.95;;;5.30;;
77466;SDS011;66564;42.482;25.548;2023-05-10T00:03:55;6.80;;;5.03;;
77466;SDS011;66564;42.482;25.548;2023-05-10T00:06:20;11.93;;;5.97;;
77466;SDS011;66564;42.482;25.548;2023-05-10T00:08:46;8.27;;;5.22;;
77466;SDS011;66564;42.482;25.548;2023-05-10T00:11:12;7.75;;;5.45;;
77466;SDS011;66564;42.482;25.548;2023-05-10T00:13:37;8.18;;;5.25;;
77466;SDS011;66564;42.482;25.548;2023-05-10T00:16:03;10.85;;;6.28;;
77466;SDS011;66564;42.482;25.548;2023-05-10T00:18:28;8.10;;;5.15;;
77466;SDS011;66564;42.482;25.548;2023-05-10T00:20:54;7.78;;;5.28;;
77466;SDS011;66564;42.482;25.548;2023-05-10T00:23:19;7.07;;;5.05;;
77466;SDS011;66564;42.482;25.548;2023-05-10T00:25:45;8.10;;;4.97;;
77466;SDS011;66564;42.482;25.548;2023-05-10T00:28:10;7.18;;;5.32;;
77466;SDS011;66564;42.482;25.548;2023-05-10T00:30:36;18.45;;;5.50;;
77466;SDS011;66564;42.482;25.548;2023-05-10T00:33:01;8.07;;;5.35;;
77466;SDS011;66564;42.482;25.548;2023-05-10T00:35:27;10.15;;;5.40;;
77466;SDS011;66564;42.482;25.548;2023-05-10T00:37:53;7.35;;;5.03;;
77466;SDS011;66564;42.482;25.548;2023-05-10T00:40:18;7.20;;;5.18;;
77466;SDS011;66564;42.482;25.548;2023-05-10T00:42:44;8.73;;;5.50;;
77466;SDS011;66564;42.482;25.548;2023-05-10T00:45:10;8.80;;;5.22;;
77466;SDS011;66564;42.482;25.548;2023-05-10T00:47:36;10.20;;;5.57;;
77466;SDS011;66564;42.482;25.548;2023-05-10T00:50:02;8.18;;;5.20;;
77466;SDS011;66564;42.482;25.548;2023-05-10T00:52:28;12.50;;;5.75;;
77466;SDS011;66564;42.482;25.548;2023-05-10T00:54:54;9.43;;;5.15;;
77466;SDS011;66564;42.482;25.548;2023-05-10T00:57:20;11.68;;;5.57;;
77466;SDS011;66564;42.482;25.548;2023-05-10T00:59:46;7.60;;;5.03;;
77466;SDS011;66564;42.482;25.548;2023-05-10T01:02:11;9.13;;;5.50;;
77466;SDS011;66564;42.482;25.548;2023-05-10T01:04:38;9.85;;;5.22;;
77466;SDS011;66564;42.482;25.548;2023-05-10T01:07:04;10.02;;;5.38;;
77466;SDS011;66564;42.482;25.548;2023-05-10T01:09:30;10.32;;;5.45;;
77466;SDS011;66564;42.482;25.548;2023-05-10T01:11:56;7.70;;;5.22;;
77466;SDS011;66564;42.482;25.548;2023-05-10T01:14:22;9.27;;;5.68;;
77466;SDS011;66564;42.482;25.548;2023-05-10T01:16:48;9.30;;;5.57;;
77466;SDS011;66564;42.482;25.548;2023-05-10T01:27:18;7.00;;;5.03;;
77466;SDS011;66564;42.482;25.548;2023-05-10T01:35:37;8.20;;;5.88;;
77466;SDS011;66564;42.482;25.548;2023-05-10T01:38:17;8.48;;;5.05;;
77466;SDS011;66564;42.482;25.548;2023-05-10T01:43:28;9.75;;;5.28;;
77466;SDS011;66564;42.482;25.548;2023-05-10T01:48:35;10.82;;;5.45;;
77466;SDS011;66564;42.482;25.548;2023-05-10T01:53:31;7.95;;;4.80;;
77466;SDS011;66564;42.482;25.548;2023-05-10T01:55:58;9.15;;;5.78;;
77466;SDS011;66564;42.482;25.548;2023-05-10T01:58:27;6.97;;;4.97;;
77466;SDS011;66564;42.482;25.548;2023-05-10T02:00:55;7.53;;;5.28;;
77466;SDS011;66564;42.482;25.548;2023-05-10T02:03:24;12.48;;;6.10;;
77466;SDS011;66564;42.482;25.548;2023-05-10T02:05:52;9.50;;;5.70;;
77466;SDS011;66564;42.482;25.548;2023-05-10T02:08:19;10.88;;;5.65;;
77466;SDS011;66564;42.482;25.548;2023-05-10T02:10:46;10.10;;;5.97;;
77466;SDS011;66564;42.482;25.548;2023-05-10T02:13:15;8.02;;;5.60;;
77466;SDS011;66564;42.482;25.548;2023-05-10T02:15:42;8.10;;;5.72;;
77466;SDS011;66564;42.482;25.548;2023-05-10T02:18:09;8.00;;;5.38;;
77466;SDS011;66564;42.482;25.548;2023-05-10T02:20:36;9.38;;;5.60;;
77466;SDS011;66564;42.482;25.548;2023-05-10T02:23:03;7.68;;;5.30;;
77466;SDS011;66564;42.482;25.548;2023-05-10T02:25:29;13.18;;;5.88;;
77466;SDS011;66564;42.482;25.548;2023-05-10T02:27:57;7.57;;;5.40;;
77466;SDS011;66564;42.482;25.548;2023-05-10T02:30:24;8.63;;;4.97;;
77466;SDS011;66564;42.482;25.548;2023-05-10T02:32:51;8.55;;;5.25;;
77466;SDS011;66564;42.482;25.548;2023-05-10T02:35:17;7.90;;;4.90;;
77466;SDS011;66564;42.482;25.548;2023-05-10T02:37:44;7.00;;;4.82;;
77466;SDS011;66564;42.482;25.548;2023-05-10T02:40:11;7.53;;;5.18;;
77466;SDS011;66564;42.482;25.548;2023-05-10T02:42:38;9.25;;;5.07;;
77466;SDS011;66564;42.482;25.548;2023-05-10T02:45:07;8.75;;;4.72;;
77466;SDS011;66564;42.482;25.548;2023-05-10T02:47:37;7.15;;;5.18;;
77466;SDS011;66564;42.482;25.548;2023-05-10T02:50:03;8.13;;;5.10;;
77466;SDS011;66564;42.482;25.548;2023-05-10T02:52:29;6.00;;;4.57;;
77466;SDS011;66564;42.482;25.548;2023-05-10T02:55:02;8.30;;;5.03;;
77466;SDS011;66564;42.482;25.548;2023-05-10T02:57:34;8.80;;;4.97;;
77466;SDS011;66564;42.482;25.548;2023-05-10T03:00:02;9.02;;;5.35;;
77466;SDS011;66564;42.482;25.548;2023-05-10T03:02:28;10.23;;;5.00;;
77466;SDS011;66564;42.482;25.548;2023-05-10T03:04:55;7.30;;;4.80;;
77466;SDS011;66564;42.482;25.548;2023-05-10T03:07:21;8.35;;;5.03;;
77466;SDS011;66564;42.482;25.548;2023-05-10T03:09:50;6.97;;;5.15;;
77466;SDS011;66564;42.482;25.548;2023-05-10T03:12:19;10.13;;;5.30;;
77466;SDS011;66564;42.482;25.548;2023-05-10T03:15:11;8.82;;;5.88;;
77466;SDS011;66564;42.482;25.548;2023-05-10T03:20:22;7.72;;;5.38;;
77466;SDS011;66564;42.482;25.548;2023-05-10T03:25:59;9.13;;;5.80;;
77466;SDS011;66564;42.482;25.548;2023-05-10T03:28:25;7.85;;;5.18;;
77466;SDS011;66564;42.482;25.548;2023-05-10T03:30:54;7.93;;;5.35;;
77466;SDS011;66564;42.482;25.548;2023-05-10T03:33:21;10.57;;;5.90;;
77466;SDS011;66564;42.482;25.548;2023-05-10T03:35:46;8.30;;;5.45;;
77466;SDS011;66564;42.482;25.548;2023-05-10T03:38:12;8.75;;;5.53;;
77466;SDS011;66564;42.482;25.548;2023-05-10T03:40:38;8.35;;;6.03;;
77466;SDS011;66564;42.482;25.548;2023-05-10T03:43:04;9.18;;;6.20;;
77466;SDS011;66564;42.482;25.548;2023-05-10T03:45:29;8.98;;;5.88;;
77466;SDS011;66564;42.482;25.548;2023-05-10T03:47:56;9.43;;;6.10;;
77466;SDS011;66564;42.482;25.548;2023-05-10T03:50:22;7.90;;;5.72;;
77466;SDS011;66564;42.482;25.548;2023-05-10T03:52:48;9.68;;;6.15;;
77466;SDS011;66564;42.482;25.548;2023-05-10T03:55:13;9.82;;;6.35;;
77466;SDS011;66564;42.482;25.548;2023-05-10T03:57:39;7.03;;;5.45;;
77466;SDS011;66564;42.482;25.548;2023-05-10T04:00:05;8.65;;;5.40;;
77466;SDS011;66564;42.482;25.548;2023-05-10T04:02:31;7.65;;;4.90;;
77466;SDS011;66564;42.482;25.548;2023-05-10T04:04:56;10.63;;;5.78;;
77466;SDS011;66564;42.482;25.548;2023-05-10T04:07:22;7.15;;;4.97;;
77466;SDS011;66564;42.482;25.548;2023-05-10T04:09:47;9.13;;;5.70;;
77466;SDS011;66564;42.482;25.548;2023-05-10T04:12:13;10.10;;;5.40;;
77466;SDS011;66564;42.482;25.548;2023-05-10T04:14:39;9.13;;;5.70;;
77466;SDS011;66564;42.482;25.548;2023-05-10T04:17:04;9.10;;;5.53;;
77466;SDS011;66564;42.482;25.548;2023-05-10T04:19:30;9.00;;;5.82;;
77466;SDS011;66564;42.482;25.548;2023-05-10T04:21:56;9.02;;;6.57;;
77466;SDS011;66564;42.482;25.548;2023-05-10T04:24:22;8.38;;;5.32;;
77466;SDS011;66564;42.482;25.548;2023-05-10T04:26:47;10.07;;;5.75;;
77466;SDS011;66564;42.482;25.548;2023-05-10T04:29:13;7.95;;;5.32;;
77466;SDS011;66564;42.482;25.548;2023-05-10T04:31:38;7.93;;;4.82;;
77466;SDS011;66564;42.482;25.548;2023-05-10T04:34:04;8.52;;;4.53;;
77466;SDS011;66564;42.482;25.548;2023-05-10T04:36:30;8.43;;;4.60;;
77466;SDS011;66564;42.482;25.548;2023-05-10T04:38:57;7.85;;;4.97;;
77466;SDS011;66564;42.482;25.548;2023-05-10T04:41:23;7.32;;;4.57;;
77466;SDS011;66564;42.482;25.548;2023-05-10T04:43:48;6.90;;;5.00;;
77466;SDS011;66564;42.482;25.548;2023-05-10T04:46:14;7.10;;;4.45;;
77466;SDS011;66564;42.482;25.548;2023-05-10T04:48:39;8.48;;;4.50;;
77466;SDS011;66564;42.482;25.548;2023-05-10T04:51:05;6.88;;;4.85;;
77466;SDS011;66564;42.482;25.548;2023-05-10T04:53:31;11.98;;;4.57;;
77466;SDS011;66564;42.482;25.548;2023-05-10T04:55:57;7.32;;;5.35;;
77466;SDS011;66564;42.482;25.548;2023-05-10T04:58:22;7.80;;;4.75;;
77466;SDS011;66564;42.482;25.548;2023-05-10T05:00:48;12.40;;;5.55;;
77466;SDS011;66564;42.482;25.548;2023-05-10T05:03:13;8.18;;;4.70;;
77466;SDS011;66564;42.482;25.548;2023-05-10T05:05:39;9.65;;;4.88;;
77466;SDS011;66564;42.482;25.548;2023-05-10T05:08:04;7.32;;;4.95;;
77466;SDS011;66564;42.482;25.548;2023-05-10T05:10:30;8.57;;;5.07;;
77466;SDS011;66564;42.482;25.548;2023-05-10T05:12:55;6.65;;;4.65;;
77466;SDS011;66564;42.482;25.548;2023-05-10T05:15:21;5.68;;;4.20;;
77466;SDS011;66564;42.482;25.548;2023-05-10T05:17:46;9.63;;;4.18;;
77466;SDS011;66564;42.482;25.548;2023-05-10T05:20:24;6.85;;;4.32;;
77466;SDS011;66564;42.482;25.548;2023-05-10T05:22:50;7.47;;;4.13;;
77466;SDS011;66564;42.482;25.548;2023-05-10T05:25:15;8.00;;;5.00;;
77466;SDS011;66564;42.482;25.548;2023-05-10T05:27:41;6.63;;;4.93;;
77466;SDS011;66564;42.482;25.548;2023-05-10T05:30:06;9.43;;;4.78;;
77466;SDS011;66564;42.482;25.548;2023-05-10T05:32:32;6.95;;;3.97;;
77466;SDS011;66564;42.482;25.548;2023-05-10T05:34:58;5.80;;;4.15;;
77466;SDS011;66564;42.482;25.548;2023-05-10T05:37:23;5.82;;;4.85;;
77466;SDS011;66564;42.482;25.548;2023-05-10T05:39:49;8.05;;;4.07;;
77466;SDS011;66564;42.482;25.548;2023-05-10T05:42:15;7.30;;;4.40;;
77466;SDS011;66564;42.482;25.548;2023-05-10T05:44:42;7.07;;;4.20;;
77466;SDS011;66564;42.482;25.548;2023-05-10T05:47:08;6.97;;;4.20;;
77466;SDS011;66564;42.482;25.548;2023-05-10T05:49:34;5.65;;;4.15;;
77466;SDS011;66564;42.482;25.548;2023-05-10T05:52:00;6.25;;;3.92;;
77466;SDS011;66564;42.482;25.548;2023-05-10T05:54:26;6.32;;;3.88;;
77466;SDS011;66564;42.482;25.548;2023-05-10T05:56:54;10.30;;;4.40;;
77466;SDS011;66564;42.482;25.548;2023-05-10T05:59:20;9.07;;;4.50;;
77466;SDS011;66564;42.482;25.548;2023-05-10T06:01:46;10.18;;;4.65;;
77466;SDS011;66564;42.482;25.548;2023-05-10T06:04:12;6.00;;;3.95;;
77466;SDS011;66564;42.482;25.548;2023-05-10T06:06:37;14.75;;;5.05;;
77466;SDS011;66564;42.482;25.548;2023-05-10T06:09:03;7.10;;;4.57;;
77466;SDS011;66564;42.482;25.548;2023-05-10T06:11:29;6.47;;;3.95;;
77466;SDS011;66564;42.482;25.548;2023-05-10T06:13:57;6.28;;;4.47;;
77466;SDS011;66564;42.482;25.548;2023-05-10T06:16:22;5.32;;;3.85;;
77466;SDS011;66564;42.482;25.548;2023-05-10T06:18:48;5.95;;;3.80;;
77466;SDS011;66564;42.482;25.548;2023-05-10T06:21:13;5.30;;;4.03;;
77466;SDS011;66564;42.482;25.548;2023-05-10T06:23:40;6.18;;;4.00;;
77466;SDS011;66564;42.482;25.548;2023-05-10T06:26:05;7.78;;;4.38;;
77466;SDS011;66564;42.482;25.548;2023-05-10T06:28:31;8.05;;;4.35;;
77466;SDS011;66564;42.482;25.548;2023-05-10T06:30:57;5.70;;;4.25;;
77466;SDS011;66564;42.482;25.548;2023-05-10T06:33:23;7.15;;;4.28;;
77466;SDS011;66564;42.482;25.548;2023-05-10T06:35:48;5.85;;;3.90;;
77466;SDS011;66564;42.482;25.548;2023-05-10T06:38:15;9.05;;;4.43;;
77466;SDS011;66564;42.482;25.548;2023-05-10T06:40:41;8.35;;;4.72;;
77466;SDS011;66564;42.482;25.548;2023-05-10T06:43:07;7.18;;;5.72;;
77466;SDS011;66564;42.482;25.548;2023-05-10T06:45:32;5.93;;;3.90;;
77466;SDS011;66564;42.482;25.548;2023-05-10T06:47:58;9.45;;;4.47;;
77466;SDS011;66564;42.482;25.548;2023-05-10T06:50:23;4.57;;;3.55;;
77466;SDS011;66564;42.482;25.548;2023-05-10T06:52:49;8.23;;;4.30;;
77466;SDS011;66564;42.482;25.548;2023-05-10T06:55:14;7.05;;;4.00;;
77466;SDS011;66564;42.482;25.548;2023-05-10T06:57:40;7.00;;;4.30;;
77466;SDS011;66564;42.482;25.548;2023-05-10T07:00:05;6.95;;;3.70;;
77466;SDS011;66564;42.482;25.548;2023-05-10T07:02:31;7.13;;;4.18;;
77466;SDS011;66564;42.482;25.548;2023-05-10T07:04:57;8.20;;;4.28;;
77466;SDS011;66564;42.482;25.548;2023-05-10T07:07:23;5.65;;;4.13;;
77466;SDS011;66564;42.482;25.548;2023-05-10T07:09:48;6.15;;;3.88;;
77466;SDS011;66564;42.482;25.548;2023-05-10T07:12:14;6.93;;;3.80;;
77466;SDS011;66564;42.482;25.548;2023-05-10T07:14:40;6.57;;;3.88;;
77466;SDS011;66564;42.482;25.548;2023-05-10T07:17:08;6.22;;;3.88;;
77466;SDS011;66564;42.482;25.548;2023-05-10T07:19:34;11.45;;;4.28;;
77466;SDS011;66564;42.482;25.548;2023-05-10T07:22:00;6.03;;;3.88;;
77466;SDS011;66564;42.482;25.548;2023-05-10T07:24:26;5.32;;;3.78;;
77466;SDS011;66564;42.482;25.548;2023-05-10T07:26:55;8.63;;;3.55;;
77466;SDS011;66564;42.482;25.548;2023-05-10T07:29:20;6.05;;;4.03;;
77466;SDS011;66564;42.482;25.548;2023-05-10T07:31:46;8.00;;;3.63;;
77466;SDS011;66564;42.482;25.548;2023-05-10T07:34:11;11.32;;;4.13;;
77466;SDS011;66564;42.482;25.548;2023-05-10T07:36:37;5.47;;;3.80;;
77466;SDS011;66564;42.482;25.548;2023-05-10T07:39:02;6.78;;;4.60;;
77466;SDS011;66564;42.482;25.548;2023-05-10T07:41:28;9.20;;;4.03;;
77466;SDS011;66564;42.482;25.548;2023-05-10T07:43:54;5.93;;;3.30;;
77466;SDS011;66564;42.482;25.548;2023-05-10T07:46:20;7.57;;;4.00;;
77466;SDS011;66564;42.482;25.548;2023-05-10T07:48:45;5.65;;;3.20;;
77466;SDS011;66564;42.482;25.548;2023-05-10T07:51:11;5.15;;;3.40;;
77466;SDS011;66564;42.482;25.548;2023-05-10T07:53:37;6.15;;;3.70;;
77466;SDS011;66564;42.482;25.548;2023-05-10T07:56:25;6.45;;;3.42;;
77466;SDS011;66564;42.482;25.548;2023-05-10T07:58:52;8.00;;;3.28;;
77466;SDS011;66564;42.482;25.548;2023-05-10T08:01:18;5.57;;;3.50;;
77466;SDS011;66564;42.482;25.548;2023-05-10T08:03:43;9.23;;;3.47;;
77466;SDS011;66564;42.482;25.548;2023-05-10T08:06:09;6.22;;;3.50;;
77466;SDS011;66564;42.482;25.548;2023-05-10T08:08:37;7.57;;;4.20;;
77466;SDS011;66564;42.482;25.548;2023-05-10T08:11:03;7.00;;;3.65;;
77466;SDS011;66564;42.482;25.548;2023-05-10T08:13:28;4.43;;;3.25;;
77466;SDS011;66564;42.482;25.548;2023-05-10T08:15:54;7.72;;;3.45;;
77466;SDS011;66564;42.482;25.548;2023-05-10T08:18:20;9.68;;;4.03;;
77466;SDS011;66564;42.482;25.548;2023-05-10T08:20:47;5.65;;;4.05;;
77466;SDS011;66564;42.482;25.548;2023-05-10T08:23:13;4.15;;;3.13;;
77466;SDS011;66564;42.482;25.548;2023-05-10T08:25:38;4.50;;;3.15;;
77466;SDS011;66564;42.482;25.548;2023-05-10T08:28:04;4.50;;;3.72;;
77466;SDS011;66564;42.482;25.548;2023-05-10T08:30:30;5.15;;;3.83;;
77466;SDS011;66564;42.482;25.548;2023-05-10T08:32:56;4.45;;;3.20;;
77466;SDS011;66564;42.482;25.548;2023-05-10T08:35:21;5.45;;;3.40;;
77466;SDS011;66564;42.482;25.548;2023-05-10T08:37:47;5.68;;;3.38;;
77466;SDS011;66564;42.482;25.548;2023-05-10T08:40:13;8.05;;;3.60;;
77466;SDS011;66564;42.482;25.548;2023-05-10T08:42:42;4.85;;;3.28;;
77466;SDS011;66564;42.482;25.548;2023-05-10T08:45:12;5.95;;;3.58;;
77466;SDS011;66564;42.482;25.548;2023-05-10T08:47:38;7.18;;;4.10;;
77466;SDS011;66564;42.482;25.548;2023-05-10T08:50:05;5.30;;;3.53;;
77466;SDS011;66564;42.482;25.548;2023-05-10T08:52:31;5.00;;;3.10;;
77466;SDS011;66564;42.482;25.548;2023-05-10T08:55:02;5.30;;;3.75;;
77466;SDS011;66564;42.482;25.548;2023-05-10T08:57:28;4.30;;;2.97;;
77466;SDS011;66564;42.482;25.548;2023-05-10T08:59:53;5.85;;;3.53;;
77466;SDS011;66564;42.482;25.548;2023-05-10T09:02:19;7.10;;;3.35;;
77466;SDS011;66564;42.482;25.548;2023-05-10T09:04:46;4.18;;;3.28;;
77466;SDS011;66564;42.482;25.548;2023-05-10T09:07:13;4.18;;;2.90;;
77466;SDS011;66564;42.482;25.548;2023-05-10T09:09:39;10.43;;;3.63;;
77466;SDS011;66564;42.482;25.548;2023-05-10T09:12:09;7.10;;;3.40;;
77466;SDS011;66564;42.482;25.548;2023-05-10T09:14:36;5.05;;;3.38;;
77466;SDS011;66564;42.482;25.548;2023-05-10T09:17:03;4.13;;;2.90;;
77466;SDS011;66564;42.482;25.548;2023-05-10T09:19:29;6.43;;;3.60;;
77466;SDS011;66564;42.482;25.548;2023-05-10T09:21:55;4.72;;;3.10;;
77466;SDS011;66564;42.482;25.548;2023-05-10T09:24:24;6.43;;;3.30;;
77466;SDS011;66564;42.482;25.548;2023-05-10T09:26:50;6.00;;;3.65;;
77466;SDS011;66564;42.482;25.548;2023-05-10T09:29:16;4.10;;;3.20;;
77466;SDS011;66564;42.482;25.548;2023-05-10T09:31:49;5.10;;;2.95;;
77466;SDS011;66564;42.482;25.548;2023-05-10T09:34:31;5.95;;;3.33;;
77466;SDS011;66564;42.482;25.548;2023-05-10T09:37:00;4.82;;;3.00;;
77466;SDS011;66564;42.482;25.548;2023-05-10T09:39:31;5.30;;;3.03;;
77466;SDS011;66564;42.482;25.548;2023-05-10T09:42:07;5.70;;;3.17;;
77466;SDS011;66564;42.482;25.548;2023-05-10T09:44:34;4.38;;;3.10;;
77466;SDS011;66564;42.482;25.548;2023-05-10T09:47:03;6.10;;;3.10;;
77466;SDS011;66564;42.482;25.548;2023-05-10T09:49:29;8.02;;;3.13;;
77466;SDS011;66564;42.482;25.548;2023-05-10T09:52:04;7.57;;;3.22;;
77466;SDS011;66564;42.482;25.548;2023-05-10T09:54:32;5.85;;;3.03;;
77466;SDS011;66564;42.482;25.548;2023-05-10T09:56:58;4.93;;;2.88;;
77466;SDS011;66564;42.482;25.548;2023-05-10T09:59:24;5.55;;;2.97;;
77466;SDS011;66564;42.482;25.548;2023-05-10T10:01:52;5.03;;;3.30;;
77466;SDS011;66564;42.482;25.548;2023-05-10T10:04:20;7.78;;;3.30;;
77466;SDS011;66564;42.482;25.548;2023-05-10T10:06:46;4.70;;;3.20;;
77466;SDS011;66564;42.482;25.548;2023-05-10T10:09:23;4.75;;;3.30;;
77466;SDS011;66564;42.482;25.548;2023-05-10T10:11:49;4.13;;;3.13;;
77466;SDS011;66564;42.482;25.548;2023-05-10T10:14:16;4.05;;;3.05;;
77466;SDS011;66564;42.482;25.548;2023-05-10T10:16:43;5.35;;;3.22;;
77466;SDS011;66564;42.482;25.548;2023-05-10T10:19:10;6.80;;;3.22;;
77466;SDS011;66564;42.482;25.548;2023-05-10T10:21:37;4.40;;;3.22;;
77466;SDS011;66564;42.482;25.548;2023-05-10T10:24:03;3.75;;;2.83;;
77466;SDS011;66564;42.482;25.548;2023-05-10T10:26:34;4.68;;;2.90;;
77466;SDS011;66564;42.482;25.548;2023-05-10T10:29:18;5.93;;;3.22;;
77466;SDS011;66564;42.482;25.548;2023-05-10T10:34:45;5.18;;;3.35;;
77466;SDS011;66564;42.482;25.548;2023-05-10T10:37:12;4.78;;;3.45;;
77466;SDS011;66564;42.482;25.548;2023-05-10T10:39:42;5.85;;;3.55;;
77466;SDS011;66564;42.482;25.548;2023-05-10T10:42:07;5.25;;;3.60;;
77466;SDS011;66564;42.482;25.548;2023-05-10T10:44:34;4.22;;;3.17;;
77466;SDS011;66564;42.482;25.548;2023-05-10T10:47:07;4.15;;;3.40;;
77466;SDS011;66564;42.482;25.548;2023-05-10T10:52:33;4.32;;;3.05;;
77466;SDS011;66564;42.482;25.548;2023-05-10T11:15:59;5.18;;;3.65;;
77466;SDS011;66564;42.482;25.548;2023-05-10T11:18:36;5.43;;;3.28;;
77466;SDS011;66564;42.482;25.548;2023-05-10T11:21:03;4.13;;;3.00;;
77466;SDS011;66564;42.482;25.548;2023-05-10T11:26:12;7.00;;;3.20;;
77466;SDS011;66564;42.482;25.548;2023-05-10T11:28:42;5.95;;;3.25;;
77466;SDS011;66564;42.482;25.548;2023-05-10T11:31:18;4.40;;;3.60;;
77466;SDS011;66564;42.482;25.548;2023-05-10T11:33:52;3.95;;;3.25;;
77466;SDS011;66564;42.482;25.548;2023-05-10T11:36:20;7.38;;;3.40;;
77466;SDS011;66564;42.482;25.548;2023-05-10T11:38:49;4.22;;;3.17;;
77466;SDS011;66564;42.482;25.548;2023-05-10T11:41:16;4.47;;;2.85;;
77466;SDS011;66564;42.482;25.548;2023-05-10T11:43:43;5.05;;;3.13;;
77466;SDS011;66564;42.482;25.548;2023-05-10T11:46:14;5.07;;;2.90;;
77466;SDS011;66564;42.482;25.548;2023-05-10T11:48:41;4.75;;;3.25;;
77466;SDS011;66564;42.482;25.548;2023-05-10T11:51:07;6.85;;;3.65;;
77466;SDS011;66564;42.482;25.548;2023-05-10T11:53:34;3.90;;;2.92;;
77466;SDS011;66564;42.482;25.548;2023-05-10T11:56:03;5.03;;;3.05;;
77466;SDS011;66564;42.482;25.548;2023-05-10T12:00:55;6.85;;;3.50;;
77466;SDS011;66564;42.482;25.548;2023-05-10T12:03:21;5.25;;;2.90;;
77466;SDS011;66564;42.482;25.548;2023-05-10T12:05:47;4.40;;;3.30;;
77466;SDS011;66564;42.482;25.548;2023-05-10T12:08:13;5.00;;;3.45;;
77466;SDS011;66564;42.482;25.548;2023-05-10T12:10:39;4.63;;;3.33;;
77466;SDS011;66564;42.482;25.548;2023-05-10T12:13:05;6.30;;;3.75;;
77466;SDS011;66564;42.482;25.548;2023-05-10T12:15:36;6.05;;;3.92;;
77466;SDS011;66564;42.482;25.548;2023-05-10T12:18:02;5.93;;;3.47;;
77466;SDS011;66564;42.482;25.548;2023-05-10T12:20:28;5.65;;;3.60;;
77466;SDS011;66564;42.482;25.548;2023-05-10T12:22:54;4.22;;;3.33;;
77466;SDS011;66564;42.482;25.548;2023-05-10T12:25:22;3.97;;;3.05;;
77466;SDS011;66564;42.482;25.548;2023-05-10T12:27:50;6.60;;;3.63;;
77466;SDS011;66564;42.482;25.548;2023-05-10T12:30:21;3.85;;;3.08;;
77466;SDS011;66564;42.482;25.548;2023-05-10T12:32:51;6.63;;;2.70;;
77466;SDS011;66564;42.482;25.548;2023-05-10T12:35:17;7.18;;;2.83;;
77466;SDS011;66564;42.482;25.548;2023-05-10T12:37:58;4.90;;;2.80;;
77466;SDS011;66564;42.482;25.548;2023-05-10T12:40:29;5.35;;;2.80;;
77466;SDS011;66564;42.482;25.548;2023-05-10T12:42:58;4.65;;;2.83;;
77466;SDS011;66564;42.482;25.548;2023-05-10T12:46:13;4.47;;;2.75;;
77466;SDS011;66564;42.482;25.548;2023-05-10T12:48:40;4.60;;;2.72;;
77466;SDS011;66564;42.482;25.548;2023-05-10T12:54:29;3.83;;;2.80;;
77466;SDS011;66564;42.482;25.548;2023-05-10T12:56:55;4.22;;;2.88;;
77466;SDS011;66564;42.482;25.548;2023-05-10T12:59:20;5.15;;;3.03;;
77466;SDS011;66564;42.482;25.548;2023-05-10T13:01:46;4.43;;;3.05;;
77466;SDS011;66564;42.482;25.548;2023-05-10T13:04:11;6.28;;;3.42;;
77466;SDS011;66564;42.482;25.548;2023-05-10T13:06:37;5.95;;;3.05;;
77466;SDS011;66564;42.482;25.548;2023-05-10T13:09:02;5.28;;;3.40;;
77466;SDS011;66564;42.482;25.548;2023-05-10T13:11:28;5.80;;;3.45;;
77466;SDS011;66564;42.482;25.548;2023-05-10T13:13:54;4.30;;;2.97;;
77466;SDS011;66564;42.482;25.548;2023-05-10T13:16:20;4.63;;;3.20;;
77466;SDS011;66564;42.482;25.548;2023-05-10T13:18:47;3.90;;;3.00;;
77466;SDS011;66564;42.482;25.548;2023-05-10T13:21:13;5.10;;;3.20;;
77466;SDS011;66564;42.482;25.548;2023-05-10T13:23:38;5.97;;;2.92;;
77466;SDS011;66564;42.482;25.548;2023-05-10T13:26:04;3.90;;;2.55;;
77466;SDS011;66564;42.482;25.548;2023-05-10T13:28:30;4.38;;;2.97;;
77466;SDS011;66564;42.482;25.548;2023-05-10T13:30:55;6.03;;;3.00;;
77466;SDS011;66564;42.482;25.548;2023-05-10T13:33:21;5.40;;;2.75;;
77466;SDS011;66564;42.482;25.548;2023-05-10T13:35:46;5.78;;;2.70;;
77466;SDS011;66564;42.482;25.548;2023-05-10T13:38:12;3.75;;;3.00;;
77466;SDS011;66564;42.482;25.548;2023-05-10T13:40:38;4.18;;;2.80;;
77466;SDS011;66564;42.482;25.548;2023-05-10T13:43:04;4.25;;;3.10;;
77466;SDS011;66564;42.482;25.548;2023-05-10T13:45:29;3.13;;;2.63;;
77466;SDS011;66564;42.482;25.548;2023-05-10T13:47:55;5.90;;;3.30;;
77466;SDS011;66564;42.482;25.548;2023-05-10T13:50:20;3.53;;;3.15;;
77466;SDS011;66564;42.482;25.548;2023-05-10T13:52:47;3.70;;;2.75;;
77466;SDS011;66564;42.482;25.548;2023-05-10T13:58:34;5.85;;;3.30;;
77466;SDS011;66564;42.482;25.548;2023-05-10T14:01:01;6.85;;;3.35;;
77466;SDS011;66564;42.482;25.548;2023-05-10T14:03:27;6.43;;;3.40;;
77466;SDS011;66564;42.482;25.548;2023-05-10T14:05:52;4.47;;;3.30;;
77466;SDS011;66564;42.482;25.548;2023-05-10T14:08:18;7.45;;;3.55;;
77466;SDS011;66564;42.482;25.548;2023-05-10T14:10:43;5.50;;;4.00;;
77466;SDS011;66564;42.482;25.548;2023-05-10T14:13:09;7.38;;;4.70;;
77466;SDS011;66564;42.482;25.548;2023-05-10T14:15:34;5.05;;;3.90;;
77466;SDS011;66564;42.482;25.548;2023-05-10T14:18:00;3.55;;;3.15;;
77466;SDS011;66564;42.482;25.548;2023-05-10T14:20:25;5.60;;;3.67;;
77466;SDS011;66564;42.482;25.548;2023-05-10T14:22:51;8.23;;;5.60;;
77466;SDS011;66564;42.482;25.548;2023-05-10T14:25:18;4.70;;;3.13;;
77466;SDS011;66564;42.482;25.548;2023-05-10T14:27:43;4.38;;;3.35;;
77466;SDS011;66564;42.482;25.548;2023-05-10T14:30:09;4.90;;;3.42;;
77466;SDS011;66564;42.482;25.548;2023-05-10T14:32:35;6.72;;;3.22;;
77466;SDS011;66564;42.482;25.548;2023-05-10T14:35:02;4.35;;;3.63;;
77466;SDS011;66564;42.482;25.548;2023-05-10T14:37:27;7.32;;;3.47;;
77466;SDS011;66564;42.482;25.548;2023-05-10T14:39:53;7.63;;;3.60;;
77466;SDS011;66564;42.482;25.548;2023-05-10T14:42:19;8.60;;;3.63;;
77466;SDS011;66564;42.482;25.548;2023-05-10T14:44:44;7.50;;;3.67;;
77466;SDS011;66564;42.482;25.548;2023-05-10T14:47:10;9.05;;;6.30;;
77466;SDS011;66564;42.482;25.548;2023-05-10T14:49:35;7.05;;;4.15;;
77466;SDS011;66564;42.482;25.548;2023-05-10T14:52:01;6.57;;;3.80;;
77466;SDS011;66564;42.482;25.548;2023-05-10T14:54:26;4.40;;;3.35;;
77466;SDS011;66564;42.482;25.548;2023-05-10T14:56:52;6.47;;;3.47;;
77466;SDS011;66564;42.482;25.548;2023-05-10T14:59:18;4.55;;;3.28;;
77466;SDS011;66564;42.482;25.548;2023-05-10T15:01:43;4.40;;;3.50;;
77466;SDS011;66564;42.482;25.548;2023-05-10T15:04:09;8.32;;;3.75;;
77466;SDS011;66564;42.482;25.548;2023-05-10T15:06:35;4.28;;;3.65;;
77466;SDS011;66564;42.482;25.548;2023-05-10T15:09:01;5.95;;;3.38;;
77466;SDS011;66564;42.482;25.548;2023-05-10T15:11:28;4.53;;;3.40;;
77466;SDS011;66564;42.482;25.548;2023-05-10T15:13:54;4.70;;;3.60;;
77466;SDS011;66564;42.482;25.548;2023-05-10T15:16:20;5.50;;;4.25;;
77466;SDS011;66564;42.482;25.548;2023-05-10T15:18:45;7.72;;;4.65;;
77466;SDS011;66564;42.482;25.548;2023-05-10T15:21:11;8.85;;;5.63;;
77466;SDS011;66564;42.482;25.548;2023-05-10T15:23:37;5.35;;;3.78;;
77466;SDS011;66564;42.482;25.548;2023-05-10T15:26:03;5.10;;;3.63;;
77466;SDS011;66564;42.482;25.548;2023-05-10T15:28:31;5.60;;;3.97;;
77466;SDS011;66564;42.482;25.548;2023-05-10T15:30:56;4.90;;;3.83;;
77466;SDS011;66564;42.482;25.548;2023-05-10T15:33:22;7.75;;;5.00;;
77466;SDS011;66564;42.482;25.548;2023-05-10T15:35:48;5.22;;;3.95;;
77466;SDS011;66564;42.482;25.548;2023-05-10T15:38:13;5.55;;;4.00;;